sensor_id;sensor_type;location;lat;lon;timestamp;P1;durP1;ratioP1;P2;durP2;ratioP2
13967;SDS011;39536;52.198;9.920;2023-04-03T00:01:05;4.60;;;2.00;;
13967;SDS011;39536;52.198;9.920;2023-04-03T00:03:31;4.03;;;2.23;;
13967;SDS011;39536;52.198;9.920;2023-04-03T00:05:58;4.10;;;1.73;;
13967;SDS011;39536;52.198;9.920;2023-04-03T00:08:27;5.67;;;1.90;;
13967;SDS011;39536;52.198;9.920;2023-04-03T00:10:55;3.10;;;2.00;;
13967;SDS011;39536;52.198;9.920;2023-04-03T00:13:22;2.43;;;1.70;;
13967;SDS011;39536;52.198;9.920;2023-04-03T00:15:50;4.63;;;1.57;;
13967;SDS011;39536;52.198;9.920;2023-04-03T00:18:16;2.10;;;1.47;;
13967;SDS011;39536;52.198;9.920;2023-04-03T00:20:43;2.90;;;1.60;;
13967;SDS011;39536;52.198;9.920;2023-04-03T00:23:10;4.10;;;1.77;;
13967;SDS011;39536;52.198;9.920;2023-04-03T00:25:38;5.67;;;1.90;;
13967;SDS011;39536;52.198;9.920;2023-04-03T00:28:04;2.87;;;1.40;;
13967;SDS011;39536;52.198;9.920;2023-04-03T00:30:31;4.20;;;1.70;;
13967;SDS011;39536;52.198;9.920;2023-04-03T00:32:58;2.63;;;1.37;;
13967;SDS011;39536;52.198;9.920;2023-04-03T00:35:25;1.93;;;1.30;;
13967;SDS011;39536;52.198;9.920;2023-04-03T00:37:52;3.03;;;1.40;;
13967;SDS011;39536;52.198;9.920;2023-04-03T00:40:20;2.43;;;1.17;;
13967;SDS011;39536;52.198;9.920;2023-04-03T00:42:51;3.20;;;1.73;;
13967;SDS011;39536;52.198;9.920;2023-04-03T00:45:29;2.80;;;1.70;;
13967;SDS011;39536;52.198;9.920;2023-04-03T00:47:58;4.10;;;1.80;;
13967;SDS011;39536;52.198;9.920;2023-04-03T00:50:27;4.80;;;2.17;;
13967;SDS011;39536;52.198;9.920;2023-04-03T00:52:55;7.20;;;2.00;;
13967;SDS011;39536;52.198;9.920;2023-04-03T00:55:22;3.23;;;1.50;;
13967;SDS011;39536;52.198;9.920;2023-04-03T00:57:50;4.60;;;1.40;;
13967;SDS011;39536;52.198;9.920;2023-04-03T01:00:19;4.63;;;1.70;;
13967;SDS011;39536;52.198;9.920;2023-04-03T01:02:47;3.77;;;1.97;;
13967;SDS011;39536;52.198;9.920;2023-04-03T01:05:14;4.57;;;1.70;;
13967;SDS011;39536;52.198;9.920;2023-04-03T01:07:42;4.03;;;1.77;;
13967;SDS011;39536;52.198;9.920;2023-04-03T01:10:11;2.80;;;1.87;;
13967;SDS011;39536;52.198;9.920;2023-04-03T01:12:40;2.57;;;1.77;;
13967;SDS011;39536;52.198;9.920;2023-04-03T01:15:11;4.50;;;1.97;;
13967;SDS011;39536;52.198;9.920;2023-04-03T01:17:40;2.30;;;1.50;;
13967;SDS011;39536;52.198;9.920;2023-04-03T01:20:15;4.97;;;1.87;;
13967;SDS011;39536;52.198;9.920;2023-04-03T01:23:03;5.37;;;1.90;;
13967;SDS011;39536;52.198;9.920;2023-04-03T01:25:42;2.93;;;2.20;;
13967;SDS011;39536;52.198;9.920;2023-04-03T01:28:10;2.83;;;1.70;;
13967;SDS011;39536;52.198;9.920;2023-04-03T01:30:41;4.43;;;2.07;;
13967;SDS011;39536;52.198;9.920;2023-04-03T01:33:13;5.83;;;2.43;;
13967;SDS011;39536;52.198;9.920;2023-04-03T01:35:40;3.77;;;2.20;;
13967;SDS011;39536;52.198;9.920;2023-04-03T01:38:06;3.80;;;2.03;;
13967;SDS011;39536;52.198;9.920;2023-04-03T01:40:32;7.97;;;2.20;;
13967;SDS011;39536;52.198;9.920;2023-04-03T01:42:59;2.63;;;1.97;;
13967;SDS011;39536;52.198;9.920;2023-04-03T01:45:26;6.17;;;2.13;;
13967;SDS011;39536;52.198;9.920;2023-04-03T01:47:52;3.80;;;1.60;;
13967;SDS011;39536;52.198;9.920;2023-04-03T01:50:20;3.77;;;1.70;;
13967;SDS011;39536;52.198;9.920;2023-04-03T01:52:46;3.33;;;1.60;;
13967;SDS011;39536;52.198;9.920;2023-04-03T01:55:13;3.07;;;1.80;;
13967;SDS011;39536;52.198;9.920;2023-04-03T01:57:40;4.67;;;2.00;;
13967;SDS011;39536;52.198;9.920;2023-04-03T02:00:06;3.87;;;2.23;;
13967;SDS011;39536;52.198;9.920;2023-04-03T02:02:34;3.20;;;1.73;;
13967;SDS011;39536;52.198;9.920;2023-04-03T02:05:00;5.27;;;2.13;;
13967;SDS011;39536;52.198;9.920;2023-04-03T02:07:28;3.17;;;1.73;;
13967;SDS011;39536;52.198;9.920;2023-04-03T02:09:55;6.27;;;2.00;;
13967;SDS011;39536;52.198;9.920;2023-04-03T02:12:21;4.07;;;2.23;;
13967;SDS011;39536;52.198;9.920;2023-04-03T02:14:47;3.63;;;1.90;;
13967;SDS011;39536;52.198;9.920;2023-04-03T02:17:14;4.43;;;2.03;;
13967;SDS011;39536;52.198;9.920;2023-04-03T02:19:40;4.83;;;1.97;;
13967;SDS011;39536;52.198;9.920;2023-04-03T02:22:07;4.90;;;1.70;;
13967;SDS011;39536;52.198;9.920;2023-04-03T02:24:35;3.40;;;2.00;;
13967;SDS011;39536;52.198;9.920;2023-04-03T02:27:04;4.80;;;2.07;;
13967;SDS011;39536;52.198;9.920;2023-04-03T02:29:30;3.77;;;2.00;;
13967;SDS011;39536;52.198;9.920;2023-04-03T02:31:57;3.07;;;2.00;;
13967;SDS011;39536;52.198;9.920;2023-04-03T02:34:23;3.83;;;2.00;;
13967;SDS011;39536;52.198;9.920;2023-04-03T02:36:50;2.90;;;1.83;;
13967;SDS011;39536;52.198;9.920;2023-04-03T02:39:16;3.70;;;2.13;;
13967;SDS011;39536;52.198;9.920;2023-04-03T02:41:44;4.00;;;1.90;;
13967;SDS011;39536;52.198;9.920;2023-04-03T02:44:11;3.83;;;1.77;;
13967;SDS011;39536;52.198;9.920;2023-04-03T02:46:38;2.97;;;1.70;;
13967;SDS011;39536;52.198;9.920;2023-04-03T02:49:04;5.37;;;1.80;;
13967;SDS011;39536;52.198;9.920;2023-04-03T02:51:31;3.23;;;1.97;;
13967;SDS011;39536;52.198;9.920;2023-04-03T02:53:58;5.33;;;1.80;;
13967;SDS011;39536;52.198;9.920;2023-04-03T02:56:24;2.60;;;1.87;;
13967;SDS011;39536;52.198;9.920;2023-04-03T02:58:53;2.30;;;1.63;;
13967;SDS011;39536;52.198;9.920;2023-04-03T03:01:19;3.97;;;2.27;;
13967;SDS011;39536;52.198;9.920;2023-04-03T03:03:46;5.57;;;2.07;;
13967;SDS011;39536;52.198;9.920;2023-04-03T03:06:13;7.80;;;2.87;;
13967;SDS011;39536;52.198;9.920;2023-04-03T03:08:41;3.80;;;2.50;;
13967;SDS011;39536;52.198;9.920;2023-04-03T03:11:08;6.60;;;2.67;;
13967;SDS011;39536;52.198;9.920;2023-04-03T03:13:36;4.17;;;2.30;;
13967;SDS011;39536;52.198;9.920;2023-04-03T03:16:04;5.03;;;2.53;;
13967;SDS011;39536;52.198;9.920;2023-04-03T03:18:31;3.30;;;2.17;;
13967;SDS011;39536;52.198;9.920;2023-04-03T03:20:58;3.03;;;2.37;;
13967;SDS011;39536;52.198;9.920;2023-04-03T03:23:27;4.43;;;2.47;;
13967;SDS011;39536;52.198;9.920;2023-04-03T03:25:55;4.73;;;2.30;;
13967;SDS011;39536;52.198;9.920;2023-04-03T03:28:22;1.80;;;1.70;;
13967;SDS011;39536;52.198;9.920;2023-04-03T03:30:50;4.40;;;1.93;;
13967;SDS011;39536;52.198;9.920;2023-04-03T03:33:18;3.50;;;2.13;;
13967;SDS011;39536;52.198;9.920;2023-04-03T03:35:45;4.77;;;2.30;;
13967;SDS011;39536;52.198;9.920;2023-04-03T03:38:11;3.43;;;2.40;;
13967;SDS011;39536;52.198;9.920;2023-04-03T03:40:38;4.20;;;2.87;;
13967;SDS011;39536;52.198;9.920;2023-04-03T03:43:04;6.93;;;2.43;;
13967;SDS011;39536;52.198;9.920;2023-04-03T03:45:31;3.47;;;2.27;;
13967;SDS011;39536;52.198;9.920;2023-04-03T03:47:57;3.67;;;2.40;;
13967;SDS011;39536;52.198;9.920;2023-04-03T03:50:25;9.20;;;2.30;;
13967;SDS011;39536;52.198;9.920;2023-04-03T03:52:52;7.60;;;2.10;;
13967;SDS011;39536;52.198;9.920;2023-04-03T03:55:18;3.97;;;2.73;;
13967;SDS011;39536;52.198;9.920;2023-04-03T03:57:45;5.57;;;2.70;;
13967;SDS011;39536;52.198;9.920;2023-04-03T04:00:12;7.20;;;2.73;;
13967;SDS011;39536;52.198;9.920;2023-04-03T04:02:39;3.90;;;2.63;;
13967;SDS011;39536;52.198;9.920;2023-04-03T04:05:06;4.67;;;2.17;;
13967;SDS011;39536;52.198;9.920;2023-04-03T04:07:34;4.03;;;2.57;;
13967;SDS011;39536;52.198;9.920;2023-04-03T04:10:00;7.30;;;2.50;;
13967;SDS011;39536;52.198;9.920;2023-04-03T04:12:27;3.00;;;2.17;;
13967;SDS011;39536;52.198;9.920;2023-04-03T04:14:53;5.20;;;2.57;;
13967;SDS011;39536;52.198;9.920;2023-04-03T04:17:20;3.03;;;2.50;;
13967;SDS011;39536;52.198;9.920;2023-04-03T04:19:47;5.30;;;3.30;;
13967;SDS011;39536;52.198;9.920;2023-04-03T04:22:13;6.47;;;1.80;;
13967;SDS011;39536;52.198;9.920;2023-04-03T04:24:41;7.20;;;2.80;;
13967;SDS011;39536;52.198;9.920;2023-04-03T04:27:07;5.47;;;2.50;;
13967;SDS011;39536;52.198;9.920;2023-04-03T04:29:34;3.73;;;2.40;;
13967;SDS011;39536;52.198;9.920;2023-04-03T04:32:02;3.93;;;2.30;;
13967;SDS011;39536;52.198;9.920;2023-04-03T04:34:28;6.50;;;2.40;;
13967;SDS011;39536;52.198;9.920;2023-04-03T04:36:55;4.90;;;2.23;;
13967;SDS011;39536;52.198;9.920;2023-04-03T04:39:22;7.43;;;2.20;;
13967;SDS011;39536;52.198;9.920;2023-04-03T04:41:50;5.40;;;2.40;;
13967;SDS011;39536;52.198;9.920;2023-04-03T04:44:16;6.53;;;2.57;;
13967;SDS011;39536;52.198;9.920;2023-04-03T04:46:42;6.53;;;2.83;;
13967;SDS011;39536;52.198;9.920;2023-04-03T04:49:09;5.17;;;2.33;;
13967;SDS011;39536;52.198;9.920;2023-04-03T04:51:35;5.57;;;2.73;;
13967;SDS011;39536;52.198;9.920;2023-04-03T04:54:02;4.17;;;2.93;;
13967;SDS011;39536;52.198;9.920;2023-04-03T04:56:28;3.03;;;2.27;;
13967;SDS011;39536;52.198;9.920;2023-04-03T04:58:56;4.33;;;2.63;;
13967;SDS011;39536;52.198;9.920;2023-04-03T05:01:22;5.10;;;2.20;;
13967;SDS011;39536;52.198;9.920;2023-04-03T05:03:49;4.50;;;2.27;;
13967;SDS011;39536;52.198;9.920;2023-04-03T05:06:15;4.17;;;2.53;;
13967;SDS011;39536;52.198;9.920;2023-04-03T05:08:42;6.03;;;2.43;;
13967;SDS011;39536;52.198;9.920;2023-04-03T05:11:08;10.07;;;2.73;;
13967;SDS011;39536;52.198;9.920;2023-04-03T05:13:35;7.60;;;2.80;;
13967;SDS011;39536;52.198;9.920;2023-04-03T05:16:03;4.03;;;2.53;;
13967;SDS011;39536;52.198;9.920;2023-04-03T05:18:30;8.33;;;3.07;;
13967;SDS011;39536;52.198;9.920;2023-04-03T05:20:56;6.03;;;2.50;;
13967;SDS011;39536;52.198;9.920;2023-04-03T05:23:23;4.37;;;2.33;;
13967;SDS011;39536;52.198;9.920;2023-04-03T05:25:51;5.67;;;2.87;;
13967;SDS011;39536;52.198;9.920;2023-04-03T05:28:18;8.33;;;2.90;;
13967;SDS011;39536;52.198;9.920;2023-04-03T05:30:45;8.13;;;3.20;;
13967;SDS011;39536;52.198;9.920;2023-04-03T05:33:12;6.33;;;2.67;;
13967;SDS011;39536;52.198;9.920;2023-04-03T05:35:39;7.60;;;2.67;;
13967;SDS011;39536;52.198;9.920;2023-04-03T05:38:07;3.27;;;2.43;;
13967;SDS011;39536;52.198;9.920;2023-04-03T05:40:33;3.63;;;2.70;;
13967;SDS011;39536;52.198;9.920;2023-04-03T05:43:00;3.17;;;2.47;;
13967;SDS011;39536;52.198;9.920;2023-04-03T05:45:27;5.77;;;3.00;;
13967;SDS011;39536;52.198;9.920;2023-04-03T05:47:53;5.10;;;2.80;;
13967;SDS011;39536;52.198;9.920;2023-04-03T05:50:21;8.67;;;3.23;;
13967;SDS011;39536;52.198;9.920;2023-04-03T05:52:48;4.20;;;2.67;;
13967;SDS011;39536;52.198;9.920;2023-04-03T05:55:17;4.50;;;3.27;;
13967;SDS011;39536;52.198;9.920;2023-04-03T05:57:43;5.87;;;2.70;;
13967;SDS011;39536;52.198;9.920;2023-04-03T06:00:12;9.70;;;2.60;;
13967;SDS011;39536;52.198;9.920;2023-04-03T06:02:40;5.40;;;2.30;;
13967;SDS011;39536;52.198;9.920;2023-04-03T06:05:07;4.33;;;2.77;;
13967;SDS011;39536;52.198;9.920;2023-04-03T06:07:37;4.03;;;2.63;;
13967;SDS011;39536;52.198;9.920;2023-04-03T06:10:04;4.17;;;2.77;;
13967;SDS011;39536;52.198;9.920;2023-04-03T06:12:33;6.00;;;2.60;;
13967;SDS011;39536;52.198;9.920;2023-04-03T06:15:00;3.60;;;2.83;;
13967;SDS011;39536;52.198;9.920;2023-04-03T06:17:27;6.53;;;2.60;;
13967;SDS011;39536;52.198;9.920;2023-04-03T06:19:54;4.23;;;2.70;;
13967;SDS011;39536;52.198;9.920;2023-04-03T06:22:23;8.07;;;3.40;;
13967;SDS011;39536;52.198;9.920;2023-04-03T06:24:51;5.07;;;3.33;;
13967;SDS011;39536;52.198;9.920;2023-04-03T06:27:18;3.87;;;2.80;;
13967;SDS011;39536;52.198;9.920;2023-04-03T06:29:45;5.90;;;2.77;;
13967;SDS011;39536;52.198;9.920;2023-04-03T06:32:11;8.83;;;3.40;;
13967;SDS011;39536;52.198;9.920;2023-04-03T06:34:37;8.70;;;3.37;;
13967;SDS011;39536;52.198;9.920;2023-04-03T06:37:04;8.83;;;3.27;;
13967;SDS011;39536;52.198;9.920;2023-04-03T06:39:31;3.10;;;2.73;;
13967;SDS011;39536;52.198;9.920;2023-04-03T06:41:59;5.60;;;2.47;;
13967;SDS011;39536;52.198;9.920;2023-04-03T06:44:25;3.47;;;2.47;;
13967;SDS011;39536;52.198;9.920;2023-04-03T06:46:51;8.67;;;3.07;;
13967;SDS011;39536;52.198;9.920;2023-04-03T06:49:19;5.47;;;2.87;;
13967;SDS011;39536;52.198;9.920;2023-04-03T06:51:46;3.97;;;2.57;;
13967;SDS011;39536;52.198;9.920;2023-04-03T06:54:12;9.87;;;3.20;;
13967;SDS011;39536;52.198;9.920;2023-04-03T06:56:39;5.00;;;3.10;;
13967;SDS011;39536;52.198;9.920;2023-04-03T06:59:08;10.23;;;2.77;;
13967;SDS011;39536;52.198;9.920;2023-04-03T07:01:35;3.53;;;2.40;;
13967;SDS011;39536;52.198;9.920;2023-04-03T07:04:01;3.10;;;2.63;;
13967;SDS011;39536;52.198;9.920;2023-04-03T07:06:28;5.23;;;2.70;;
13967;SDS011;39536;52.198;9.920;2023-04-03T07:08:56;9.67;;;2.67;;
13967;SDS011;39536;52.198;9.920;2023-04-03T07:11:22;3.83;;;2.67;;
13967;SDS011;39536;52.198;9.920;2023-04-03T07:13:49;4.80;;;2.50;;
13967;SDS011;39536;52.198;9.920;2023-04-03T07:16:18;4.67;;;3.07;;
13967;SDS011;39536;52.198;9.920;2023-04-03T07:18:45;5.77;;;2.47;;
13967;SDS011;39536;52.198;9.920;2023-04-03T07:21:12;3.50;;;2.50;;
13967;SDS011;39536;52.198;9.920;2023-04-03T07:23:39;6.37;;;2.57;;
13967;SDS011;39536;52.198;9.920;2023-04-03T07:26:05;8.60;;;2.47;;
13967;SDS011;39536;52.198;9.920;2023-04-03T07:28:32;3.00;;;2.00;;
13967;SDS011;39536;52.198;9.920;2023-04-03T07:31:00;4.10;;;2.40;;
13967;SDS011;39536;52.198;9.920;2023-04-03T07:33:29;5.43;;;2.70;;
13967;SDS011;39536;52.198;9.920;2023-04-03T07:35:56;4.10;;;2.43;;
13967;SDS011;39536;52.198;9.920;2023-04-03T07:38:22;9.27;;;2.70;;
13967;SDS011;39536;52.198;9.920;2023-04-03T07:40:49;6.37;;;2.80;;
13967;SDS011;39536;52.198;9.920;2023-04-03T07:43:18;5.53;;;2.53;;
13967;SDS011;39536;52.198;9.920;2023-04-03T07:45:45;3.43;;;2.33;;
13967;SDS011;39536;52.198;9.920;2023-04-03T07:48:15;5.83;;;2.50;;
13967;SDS011;39536;52.198;9.920;2023-04-03T07:50:43;4.10;;;2.60;;
13967;SDS011;39536;52.198;9.920;2023-04-03T07:53:10;6.07;;;2.80;;
13967;SDS011;39536;52.198;9.920;2023-04-03T07:55:37;4.40;;;2.50;;
13967;SDS011;39536;52.198;9.920;2023-04-03T07:58:07;4.43;;;2.23;;
13967;SDS011;39536;52.198;9.920;2023-04-03T08:00:34;5.00;;;2.27;;
13967;SDS011;39536;52.198;9.920;2023-04-03T08:03:01;5.33;;;2.93;;
13967;SDS011;39536;52.198;9.920;2023-04-03T08:05:27;6.00;;;2.60;;
13967;SDS011;39536;52.198;9.920;2023-04-03T08:07:55;3.93;;;2.37;;
13967;SDS011;39536;52.198;9.920;2023-04-03T08:10:21;4.53;;;2.17;;
13967;SDS011;39536;52.198;9.920;2023-04-03T08:12:48;8.27;;;2.33;;
13967;SDS011;39536;52.198;9.920;2023-04-03T08:15:14;5.30;;;2.93;;
13967;SDS011;39536;52.198;9.920;2023-04-03T08:17:41;13.13;;;2.90;;
13967;SDS011;39536;52.198;9.920;2023-04-03T08:20:09;4.50;;;2.37;;
13967;SDS011;39536;52.198;9.920;2023-04-03T08:22:36;3.23;;;2.20;;
13967;SDS011;39536;52.198;9.920;2023-04-03T08:25:04;6.03;;;2.23;;
13967;SDS011;39536;52.198;9.920;2023-04-03T08:27:31;3.83;;;2.13;;
13967;SDS011;39536;52.198;9.920;2023-04-03T08:29:57;2.50;;;1.63;;
13967;SDS011;39536;52.198;9.920;2023-04-03T08:32:24;4.70;;;2.20;;
13967;SDS011;39536;52.198;9.920;2023-04-03T08:34:50;5.23;;;2.17;;
13967;SDS011;39536;52.198;9.920;2023-04-03T08:37:17;3.30;;;1.90;;
13967;SDS011;39536;52.198;9.920;2023-04-03T08:39:44;3.67;;;1.67;;
13967;SDS011;39536;52.198;9.920;2023-04-03T08:42:15;5.13;;;1.77;;
13967;SDS011;39536;52.198;9.920;2023-04-03T08:44:46;4.90;;;1.80;;
13967;SDS011;39536;52.198;9.920;2023-04-03T08:47:23;6.80;;;2.37;;
13967;SDS011;39536;52.198;9.920;2023-04-03T08:49:51;3.93;;;1.60;;
13967;SDS011;39536;52.198;9.920;2023-04-03T08:52:22;3.67;;;1.50;;
13967;SDS011;39536;52.198;9.920;2023-04-03T08:54:55;5.00;;;1.73;;
13967;SDS011;39536;52.198;9.920;2023-04-03T08:57:27;4.47;;;1.70;;
13967;SDS011;39536;52.198;9.920;2023-04-03T08:59:57;3.50;;;1.60;;
13967;SDS011;39536;52.198;9.920;2023-04-03T09:02:27;2.93;;;1.50;;
13967;SDS011;39536;52.198;9.920;2023-04-03T09:04:57;6.57;;;1.50;;
13967;SDS011;39536;52.198;9.920;2023-04-03T09:07:25;3.63;;;1.70;;
13967;SDS011;39536;52.198;9.920;2023-04-03T09:09:59;2.83;;;1.63;;
13967;SDS011;39536;52.198;9.920;2023-04-03T09:12:31;3.60;;;1.30;;
13967;SDS011;39536;52.198;9.920;2023-04-03T09:15:05;5.93;;;1.53;;
13967;SDS011;39536;52.198;9.920;2023-04-03T09:17:41;1.40;;;1.07;;
13967;SDS011;39536;52.198;9.920;2023-04-03T09:20:17;3.60;;;1.40;;
13967;SDS011;39536;52.198;9.920;2023-04-03T09:22:51;3.93;;;1.70;;
13967;SDS011;39536;52.198;9.920;2023-04-03T09:25:21;2.00;;;1.23;;
13967;SDS011;39536;52.198;9.920;2023-04-03T09:27:50;2.50;;;1.40;;
13967;SDS011;39536;52.198;9.920;2023-04-03T09:30:18;2.23;;;1.30;;
13967;SDS011;39536;52.198;9.920;2023-04-03T09:32:46;4.80;;;1.13;;
13967;SDS011;39536;52.198;9.920;2023-04-03T09:35:21;2.83;;;1.17;;
13967;SDS011;39536;52.198;9.920;2023-04-03T09:37:51;2.90;;;1.47;;
13967;SDS011;39536;52.198;9.920;2023-04-03T09:40:29;1.17;;;1.07;;
13967;SDS011;39536;52.198;9.920;2023-04-03T09:43:01;3.73;;;1.30;;
13967;SDS011;39536;52.198;9.920;2023-04-03T09:45:29;3.03;;;1.07;;
13967;SDS011;39536;52.198;9.920;2023-04-03T09:48:04;1.47;;;1.20;;
13967;SDS011;39536;52.198;9.920;2023-04-03T09:50:33;2.77;;;1.37;;
13967;SDS011;39536;52.198;9.920;2023-04-03T09:53:04;2.83;;;1.37;;
13967;SDS011;39536;52.198;9.920;2023-04-03T09:55:32;3.07;;;1.40;;
13967;SDS011;39536;52.198;9.920;2023-04-03T09:58:22;2.17;;;0.87;;
13967;SDS011;39536;52.198;9.920;2023-04-03T10:00:53;4.70;;;1.30;;
13967;SDS011;39536;52.198;9.920;2023-04-03T10:03:23;1.67;;;1.10;;
13967;SDS011;39536;52.198;9.920;2023-04-03T10:05:52;2.33;;;1.17;;
13967;SDS011;39536;52.198;9.920;2023-04-03T10:08:21;1.67;;;1.20;;
13967;SDS011;39536;52.198;9.920;2023-04-03T10:11:04;3.10;;;1.50;;
13967;SDS011;39536;52.198;9.920;2023-04-03T10:13:36;1.70;;;1.10;;
13967;SDS011;39536;52.198;9.920;2023-04-03T10:16:16;1.83;;;1.20;;
13967;SDS011;39536;52.198;9.920;2023-04-03T10:18:46;1.83;;;1.27;;
13967;SDS011;39536;52.198;9.920;2023-04-03T10:21:24;1.17;;;0.90;;
13967;SDS011;39536;52.198;9.920;2023-04-03T10:24:03;1.03;;;0.80;;
13967;SDS011;39536;52.198;9.920;2023-04-03T10:26:38;1.70;;;1.00;;
13967;SDS011;39536;52.198;9.920;2023-04-03T10:29:15;3.47;;;1.00;;
13967;SDS011;39536;52.198;9.920;2023-04-03T10:31:52;3.60;;;1.23;;
13967;SDS011;39536;52.198;9.920;2023-04-03T10:34:28;1.87;;;1.13;;
13967;SDS011;39536;52.198;9.920;2023-04-03T10:36:59;2.27;;;0.97;;
13967;SDS011;39536;52.198;9.920;2023-04-03T10:39:36;1.23;;;0.80;;
13967;SDS011;39536;52.198;9.920;2023-04-03T10:42:13;5.53;;;1.37;;
13967;SDS011;39536;52.198;9.920;2023-04-03T10:47:35;3.03;;;1.00;;
13967;SDS011;39536;52.198;9.920;2023-04-03T10:50:13;2.00;;;1.20;;
13967;SDS011;39536;52.198;9.920;2023-04-03T10:52:52;1.50;;;0.83;;
13967;SDS011;39536;52.198;9.920;2023-04-03T10:55:24;2.30;;;1.00;;
13967;SDS011;39536;52.198;9.920;2023-04-03T10:57:59;1.27;;;1.10;;
13967;SDS011;39536;52.198;9.920;2023-04-03T11:00:30;1.97;;;1.30;;
13967;SDS011;39536;52.198;9.920;2023-04-03T11:03:03;2.67;;;1.00;;
13967;SDS011;39536;52.198;9.920;2023-04-03T11:05:34;2.13;;;1.20;;
13967;SDS011;39536;52.198;9.920;2023-04-03T11:08:07;2.90;;;1.30;;
13967;SDS011;39536;52.198;9.920;2023-04-03T11:10:40;1.40;;;0.90;;
13967;SDS011;39536;52.198;9.920;2023-04-03T11:13:11;2.23;;;1.20;;
13967;SDS011;39536;52.198;9.920;2023-04-03T11:15:41;1.13;;;0.90;;
13967;SDS011;39536;52.198;9.920;2023-04-03T11:18:09;0.77;;;0.70;;
13967;SDS011;39536;52.198;9.920;2023-04-03T11:20:40;1.87;;;1.03;;
13967;SDS011;39536;52.198;9.920;2023-04-03T11:23:12;2.97;;;1.57;;
13967;SDS011;39536;52.198;9.920;2023-04-03T11:25:47;1.73;;;1.00;;
13967;SDS011;39536;52.198;9.920;2023-04-03T11:28:17;3.00;;;0.97;;
13967;SDS011;39536;52.198;9.920;2023-04-03T11:30:46;2.90;;;1.27;;
13967;SDS011;39536;52.198;9.920;2023-04-03T11:33:24;1.77;;;1.20;;
13967;SDS011;39536;52.198;9.920;2023-04-03T11:35:59;2.33;;;1.40;;
13967;SDS011;39536;52.198;9.920;2023-04-03T11:38:30;1.87;;;1.00;;
13967;SDS011;39536;52.198;9.920;2023-04-03T11:41:01;1.10;;;0.90;;
13967;SDS011;39536;52.198;9.920;2023-04-03T11:43:29;1.47;;;0.93;;
13967;SDS011;39536;52.198;9.920;2023-04-03T11:45:59;2.73;;;1.30;;
13967;SDS011;39536;52.198;9.920;2023-04-03T12:03:32;3.37;;;1.50;;
13967;SDS011;39536;52.198;9.920;2023-04-03T12:09:22;1.90;;;1.53;;
13967;SDS011;39536;52.198;9.920;2023-04-03T12:11:51;1.13;;;1.03;;
13967;SDS011;39536;52.198;9.920;2023-04-03T12:14:20;1.63;;;1.40;;
13967;SDS011;39536;52.198;9.920;2023-04-03T12:16:49;3.27;;;1.67;;
13967;SDS011;39536;52.198;9.920;2023-04-03T12:19:31;2.53;;;1.00;;
13967;SDS011;39536;52.198;9.920;2023-04-03T12:22:10;1.20;;;0.83;;
13967;SDS011;39536;52.198;9.920;2023-04-03T12:24:39;1.50;;;1.10;;
13967;SDS011;39536;52.198;9.920;2023-04-03T12:27:16;1.50;;;0.93;;
13967;SDS011;39536;52.198;9.920;2023-04-03T12:29:52;2.20;;;1.50;;
13967;SDS011;39536;52.198;9.920;2023-04-03T12:32:26;2.17;;;1.37;;
13967;SDS011;39536;52.198;9.920;2023-04-03T12:35:07;1.80;;;1.00;;
13967;SDS011;39536;52.198;9.920;2023-04-03T12:37:49;1.77;;;1.23;;
13967;SDS011;39536;52.198;9.920;2023-04-03T12:40:33;3.13;;;1.30;;
13967;SDS011;39536;52.198;9.920;2023-04-03T12:43:11;3.93;;;1.33;;
13967;SDS011;39536;52.198;9.920;2023-04-03T12:45:56;2.73;;;1.47;;
13967;SDS011;39536;52.198;9.920;2023-04-03T12:48:28;1.93;;;1.53;;
13967;SDS011;39536;52.198;9.920;2023-04-03T12:50:58;2.10;;;1.57;;
13967;SDS011;39536;52.198;9.920;2023-04-03T12:53:26;2.60;;;1.30;;
13967;SDS011;39536;52.198;9.920;2023-04-03T12:55:55;1.30;;;1.00;;
13967;SDS011;39536;52.198;9.920;2023-04-03T12:58:23;1.67;;;1.20;;
13967;SDS011;39536;52.198;9.920;2023-04-03T13:01:01;2.50;;;1.30;;
13967;SDS011;39536;52.198;9.920;2023-04-03T13:03:29;2.43;;;1.13;;
13967;SDS011;39536;52.198;9.920;2023-04-03T13:05:58;1.60;;;1.03;;
13967;SDS011;39536;52.198;9.920;2023-04-03T13:08:28;1.63;;;1.37;;
13967;SDS011;39536;52.198;9.920;2023-04-03T13:10:56;3.13;;;1.40;;
13967;SDS011;39536;52.198;9.920;2023-04-03T13:13:27;0.97;;;0.93;;
13967;SDS011;39536;52.198;9.920;2023-04-03T13:15:54;2.70;;;1.30;;
13967;SDS011;39536;52.198;9.920;2023-04-03T13:18:21;1.73;;;1.27;;
13967;SDS011;39536;52.198;9.920;2023-04-03T13:20:51;3.07;;;2.07;;
13967;SDS011;39536;52.198;9.920;2023-04-03T13:23:21;1.50;;;1.40;;
13967;SDS011;39536;52.198;9.920;2023-04-03T13:25:48;1.70;;;1.37;;
13967;SDS011;39536;52.198;9.920;2023-04-03T13:28:17;1.63;;;1.20;;
13967;SDS011;39536;52.198;9.920;2023-04-03T13:30:54;2.33;;;1.10;;
13967;SDS011;39536;52.198;9.920;2023-04-03T13:33:25;4.10;;;2.50;;
13967;SDS011;39536;52.198;9.920;2023-04-03T13:35:56;3.70;;;2.50;;
13967;SDS011;39536;52.198;9.920;2023-04-03T13:38:28;2.73;;;1.43;;
13967;SDS011;39536;52.198;9.920;2023-04-03T13:40:58;1.20;;;1.10;;
13967;SDS011;39536;52.198;9.920;2023-04-03T13:43:28;4.00;;;1.40;;
13967;SDS011;39536;52.198;9.920;2023-04-03T13:45:58;1.67;;;1.40;;
13967;SDS011;39536;52.198;9.920;2023-04-03T13:48:34;4.43;;;2.17;;
13967;SDS011;39536;52.198;9.920;2023-04-03T13:51:02;1.87;;;0.80;;
13967;SDS011;39536;52.198;9.920;2023-04-03T13:53:33;2.57;;;1.20;;
13967;SDS011;39536;52.198;9.920;2023-04-03T13:56:08;2.20;;;1.23;;
13967;SDS011;39536;52.198;9.920;2023-04-03T13:58:36;3.27;;;1.53;;
13967;SDS011;39536;52.198;9.920;2023-04-03T14:01:07;2.30;;;1.17;;
13967;SDS011;39536;52.198;9.920;2023-04-03T14:03:39;2.10;;;1.37;;
13967;SDS011;39536;52.198;9.920;2023-04-03T14:06:09;3.13;;;1.77;;
13967;SDS011;39536;52.198;9.920;2023-04-03T14:08:38;1.80;;;1.37;;
13967;SDS011;39536;52.198;9.920;2023-04-03T14:11:05;2.33;;;1.40;;
13967;SDS011;39536;52.198;9.920;2023-04-03T14:13:31;2.33;;;1.60;;
13967;SDS011;39536;52.198;9.920;2023-04-03T14:15:58;2.60;;;1.70;;
13967;SDS011;39536;52.198;9.920;2023-04-03T14:18:25;2.20;;;1.03;;
13967;SDS011;39536;52.198;9.920;2023-04-03T14:20:52;3.57;;;1.87;;
13967;SDS011;39536;52.198;9.920;2023-04-03T14:23:18;4.30;;;1.90;;
13967;SDS011;39536;52.198;9.920;2023-04-03T14:25:46;1.27;;;0.87;;
13967;SDS011;39536;52.198;9.920;2023-04-03T14:28:14;4.53;;;1.87;;
13967;SDS011;39536;52.198;9.920;2023-04-03T14:30:44;1.93;;;1.37;;
13967;SDS011;39536;52.198;9.920;2023-04-03T14:33:13;2.50;;;2.03;;
13967;SDS011;39536;52.198;9.920;2023-04-03T14:35:42;2.33;;;2.07;;
13967;SDS011;39536;52.198;9.920;2023-04-03T14:38:12;2.10;;;1.20;;
13967;SDS011;39536;52.198;9.920;2023-04-03T14:40:50;2.80;;;1.60;;
13967;SDS011;39536;52.198;9.920;2023-04-03T14:43:17;3.63;;;1.73;;
13967;SDS011;39536;52.198;9.920;2023-04-03T14:45:45;2.20;;;2.00;;
13967;SDS011;39536;52.198;9.920;2023-04-03T14:48:12;1.57;;;1.43;;
13967;SDS011;39536;52.198;9.920;2023-04-03T14:50:44;2.33;;;1.33;;
13967;SDS011;39536;52.198;9.920;2023-04-03T14:53:12;2.83;;;1.30;;
13967;SDS011;39536;52.198;9.920;2023-04-03T14:55:40;2.07;;;1.30;;
13967;SDS011;39536;52.198;9.920;2023-04-03T14:58:09;2.03;;;1.40;;
13967;SDS011;39536;52.198;9.920;2023-04-03T15:00:39;1.97;;;1.20;;
13967;SDS011;39536;52.198;9.920;2023-04-03T15:03:06;2.37;;;1.27;;
13967;SDS011;39536;52.198;9.920;2023-04-03T15:05:35;1.97;;;1.17;;
13967;SDS011;39536;52.198;9.920;2023-04-03T15:08:02;1.57;;;0.83;;
13967;SDS011;39536;52.198;9.920;2023-04-03T15:10:30;1.67;;;1.10;;
13967;SDS011;39536;52.198;9.920;2023-04-03T15:12:57;3.43;;;1.17;;
13967;SDS011;39536;52.198;9.920;2023-04-03T15:15:28;5.67;;;1.30;;
13967;SDS011;39536;52.198;9.920;2023-04-03T15:17:56;1.07;;;0.90;;
13967;SDS011;39536;52.198;9.920;2023-04-03T15:20:24;2.97;;;1.13;;